createdAt,value
2022-08-05T00:00:25.884Z,4.00
2022-08-05T00:03:54.881Z,4.50
2022-08-05T00:08:01.041Z,3.90
2022-08-05T00:11:20.807Z,3.80
2022-08-05T00:15:54.031Z,3.80
2022-08-05T00:18:53.829Z,3.90
2022-08-05T00:22:23.327Z,4.70
2022-08-05T00:25:54.151Z,4.10
2022-08-05T00:29:25.433Z,4.40
2022-08-05T00:33:04.696Z,4.20
2022-08-05T00:37:11.022Z,4.60
2022-08-05T00:40:29.366Z,4.10
2022-08-05T00:44:00.224Z,4.40
2022-08-05T00:47:56.729Z,4.90
2022-08-05T00:51:50.513Z,4.00
2022-08-05T00:55:17.470Z,4.10
2022-08-05T00:58:53.659Z,3.80
2022-08-05T01:02:26.498Z,4.20
2022-08-05T01:05:57.674Z,4.10
2022-08-05T01:09:30.364Z,4.80
2022-08-05T01:13:13.215Z,4.00
2022-08-05T01:17:03.356Z,4.40
2022-08-05T01:20:43.314Z,4.40
2022-08-05T01:24:38.380Z,4.00
2022-08-05T01:28:39.522Z,4.20
2022-08-05T01:32:18.393Z,4.60
2022-08-05T01:35:55.610Z,4.40
2022-08-05T01:39:46.196Z,4.30
2022-08-05T01:43:21.991Z,4.30
2022-08-05T01:46:56.080Z,5.20
2022-08-05T01:50:29.682Z,5.10
2022-08-05T01:54:02.257Z,5.80
2022-08-05T01:58:10.630Z,6.70
2022-08-05T02:01:28.420Z,5.40
2022-08-05T02:05:06.212Z,4.80
2022-08-05T02:08:57.883Z,5.00
2022-08-05T02:12:37.658Z,4.80
2022-08-05T02:16:16.295Z,4.80
2022-08-05T02:19:51.189Z,5.80
2022-08-05T02:23:29.521Z,5.20
2022-08-05T02:27:10.234Z,4.80
2022-08-05T02:30:54.439Z,5.00
2022-08-05T02:34:26.353Z,5.00
2022-08-05T02:38:00.327Z,5.30
2022-08-05T02:41:43.362Z,5.00
2022-08-05T02:45:52.239Z,6.10
2022-08-05T02:49:21.790Z,5.30
2022-08-05T02:52:53.724Z,5.40
2022-08-05T02:56:28.941Z,5.80
2022-08-05T03:00:02.533Z,6.00
2022-08-05T03:04:02.568Z,6.60
2022-08-05T03:08:01.183Z,5.30
2022-08-05T03:11:55.196Z,5.70
2022-08-05T03:15:20.667Z,4.90
2022-08-05T03:18:55.411Z,5.50
2022-08-05T03:22:32.364Z,5.70
2022-08-05T03:26:31.902Z,5.50
2022-08-05T03:33:50.916Z,6.00
2022-08-05T03:37:23.038Z,5.80
2022-08-05T03:40:57.774Z,5.20
2022-08-05T03:44:29.450Z,5.90
2022-08-05T03:48:00.940Z,6.30
2022-08-05T03:52:38.088Z,5.30
2022-08-05T03:56:05.239Z,5.30
2022-08-05T03:59:46.731Z,5.50
2022-08-05T04:03:28.938Z,5.80
2022-08-05T04:07:03.050Z,5.50
2022-08-05T04:10:38.359Z,5.70
2022-08-05T04:14:10.239Z,5.90
2022-08-05T04:17:56.142Z,6.30
2022-08-05T04:22:08.062Z,5.60
2022-08-05T04:25:57.404Z,6.40
2022-08-05T04:29:18.155Z,6.30
2022-08-05T04:32:49.717Z,6.10
2022-08-05T04:36:44.960Z,6.70
2022-08-05T04:40:13.236Z,6.70
2022-08-05T04:43:52.119Z,5.60
2022-08-05T04:47:23.056Z,6.10
2022-08-05T04:51:11.190Z,6.90
2022-08-05T04:54:45.147Z,6.90
2022-08-05T04:58:21.836Z,6.60
2022-08-05T05:02:07.947Z,6.00
2022-08-05T05:06:39.968Z,6.70
2022-08-05T05:09:35.040Z,6.90
2022-08-05T05:13:07.081Z,8.90
2022-08-05T05:16:36.835Z,9.60
2022-08-05T05:20:07.410Z,13.50
2022-08-05T05:24:01.965Z,10.70
2022-08-05T05:27:45.250Z,9.70
2022-08-05T05:31:15.500Z,7.60
2022-08-05T05:34:52.458Z,8.60
2022-08-05T05:38:27.598Z,7.20
2022-08-05T05:41:59.745Z,6.70
2022-08-05T05:48:57.846Z,6.20
2022-08-05T05:52:38.096Z,5.70
2022-08-05T05:56:10.744Z,5.30
2022-08-05T05:59:43.377Z,5.40
2022-08-05T06:03:39.900Z,4.50
2022-08-05T06:07:08.376Z,5.00
2022-08-05T06:10:52.523Z,5.10
2022-08-05T06:14:24.286Z,4.80
2022-08-05T06:17:57.526Z,5.20
2022-08-05T06:21:35.945Z,7.40
2022-08-05T06:25:59.762Z,8.80
2022-08-05T06:29:03.688Z,6.80
2022-08-05T06:32:53.430Z,7.80
2022-08-05T06:36:25.958Z,8.80
2022-08-05T06:39:54.040Z,5.30
2022-08-05T06:43:57.440Z,6.80
2022-08-05T06:48:11.746Z,8.80
2022-08-05T06:51:09.502Z,6.20
2022-08-05T06:54:39.678Z,6.10
2022-08-05T06:58:29.565Z,4.90
2022-08-05T07:01:56.908Z,5.10
2022-08-05T07:05:36.939Z,4.00
2022-08-05T07:09:07.132Z,3.50
2022-08-05T07:12:54.934Z,3.60
2022-08-05T07:18:08.750Z,3.00
2022-08-05T07:20:37.087Z,3.00
2022-08-05T07:24:11.482Z,2.60
2022-08-05T07:27:56.356Z,2.60
2022-08-05T07:31:40.894Z,3.20
2022-08-05T07:36:02.654Z,3.60
2022-08-05T07:39:24.801Z,3.20
2022-08-05T07:42:59.372Z,5.80
2022-08-05T07:46:35.265Z,5.20
2022-08-05T07:50:06.698Z,4.20
2022-08-05T07:53:50.538Z,4.00
2022-08-05T07:57:51.248Z,3.20
2022-08-05T08:01:06.769Z,2.80
2022-08-05T08:04:41.966Z,2.70
2022-08-05T08:08:12.241Z,2.10
2022-08-05T08:11:54.231Z,2.90
2022-08-05T08:15:37.184Z,2.50
2022-08-05T08:20:00.460Z,2.40
2022-08-05T08:23:04.319Z,1.90
2022-08-05T08:26:32.122Z,3.90
2022-08-05T08:30:05.450Z,3.10
2022-08-05T08:33:51.700Z,3.80
2022-08-05T08:37:21.976Z,3.30
2022-08-05T08:40:57.084Z,3.90
2022-08-05T08:45:16.465Z,2.90
2022-08-05T08:48:36.061Z,2.00
2022-08-05T08:52:13.934Z,2.00
2022-08-05T08:56:05.090Z,2.20
2022-08-05T08:59:33.509Z,2.50
2022-08-05T09:03:07.276Z,3.90
2022-08-05T09:10:05.579Z,2.00
2022-08-05T09:13:50.711Z,2.40
2022-08-05T09:17:42.927Z,2.30
2022-08-05T09:21:20.731Z,2.00
2022-08-05T09:25:23.902Z,2.20
2022-08-05T09:28:56.093Z,1.80
2022-08-05T09:32:51.179Z,2.40
2022-08-05T09:36:20.622Z,1.90
2022-08-05T09:39:52.716Z,2.00
2022-08-05T09:43:40.268Z,2.00
2022-08-05T09:47:15.677Z,1.70
2022-08-05T09:50:52.818Z,1.80
2022-08-05T09:54:36.704Z,2.10
2022-08-05T09:58:18.131Z,2.00
2022-08-05T10:01:48.810Z,1.80
2022-08-05T10:05:32.943Z,2.00
2022-08-05T10:09:25.108Z,2.20
2022-08-05T10:13:00.211Z,1.90
2022-08-05T10:16:37.696Z,1.90
2022-08-05T10:20:14.757Z,2.20
2022-08-05T10:23:59.799Z,2.30
2022-08-05T10:28:09.364Z,1.90
2022-08-05T10:32:54.149Z,2.00
2022-08-05T10:35:10.640Z,2.00
2022-08-05T10:38:45.068Z,2.30
2022-08-05T10:42:32.442Z,1.70
2022-08-05T10:46:10.464Z,1.80
2022-08-05T10:50:35.133Z,2.30
2022-08-05T10:54:00.989Z,1.90
2022-08-05T10:57:34.283Z,2.00
2022-08-05T11:01:11.403Z,2.50
2022-08-05T11:04:49.729Z,2.10
2022-08-05T11:08:36.553Z,2.70
2022-08-05T11:12:05.510Z,2.30
2022-08-05T11:16:00.500Z,2.40
2022-08-05T11:20:17.659Z,2.40
2022-08-05T11:24:02.907Z,2.40
2022-08-05T11:27:45.717Z,1.70
2022-08-05T11:31:58.330Z,2.10
2022-08-05T11:36:04.448Z,2.30
2022-08-05T11:40:13.996Z,2.50
2022-08-05T11:44:04.383Z,2.50
2022-08-05T11:47:49.986Z,2.40
2022-08-05T11:51:44.274Z,2.40
2022-08-05T11:55:10.451Z,2.20
2022-08-05T11:58:41.557Z,2.00
2022-08-05T12:06:06.515Z,2.00
2022-08-05T12:09:52.846Z,2.10
2022-08-05T12:13:47.626Z,2.50
2022-08-05T12:18:00.555Z,2.20
2022-08-05T12:21:15.164Z,2.10
2022-08-05T12:24:49.685Z,5.40
2022-08-05T12:28:33.955Z,2.50
2022-08-05T12:32:04.430Z,2.40
2022-08-05T12:35:39.518Z,2.20
2022-08-05T12:39:10.917Z,2.40
2022-08-05T12:42:41.020Z,2.30
2022-08-05T12:46:29.606Z,2.20
2022-08-05T12:50:05.335Z,2.80
2022-08-05T12:53:37.125Z,2.70
2022-08-05T12:57:10.862Z,2.30
2022-08-05T13:02:02.841Z,2.40
2022-08-05T13:04:41.659Z,2.20
2022-08-05T13:08:22.848Z,2.20
2022-08-05T13:12:06.243Z,2.50
2022-08-05T13:15:49.193Z,2.40
2022-08-05T13:19:26.195Z,2.50
2022-08-05T13:22:56.904Z,2.20
2022-08-05T13:26:30.270Z,2.30
2022-08-05T13:30:33.561Z,2.80
2022-08-05T13:34:21.910Z,2.10
2022-08-05T13:37:55.777Z,2.60
2022-08-05T13:41:35.872Z,2.30
2022-08-05T13:48:58.834Z,2.30
2022-08-05T13:52:30.430Z,2.90
2022-08-05T13:56:18.177Z,2.60
2022-08-05T14:00:03.044Z,2.20
2022-08-05T14:03:38.166Z,2.40
2022-08-05T14:07:12.195Z,2.40
2022-08-05T14:10:59.646Z,2.40
2022-08-05T14:14:47.656Z,2.20
2022-08-05T14:18:23.481Z,2.40
2022-08-05T14:22:09.151Z,2.50
2022-08-05T14:25:45.155Z,2.80
2022-08-05T14:29:16.605Z,2.60
2022-08-05T14:32:47.477Z,2.60
2022-08-05T14:36:15.802Z,2.30
2022-08-05T14:39:50.120Z,2.60
2022-08-05T14:43:59.324Z,2.40
2022-08-05T14:47:14.212Z,2.70
2022-08-05T14:50:42.979Z,2.50
2022-08-05T14:54:27.638Z,2.70
2022-08-05T14:58:00.694Z,2.10
2022-08-05T15:01:48.431Z,2.40
2022-08-05T15:05:17.534Z,2.60
2022-08-05T15:08:59.822Z,2.50
2022-08-05T15:12:57.703Z,2.50
2022-08-05T15:16:20.529Z,2.50
2022-08-05T15:19:51.103Z,2.10
2022-08-05T15:23:22.536Z,2.00
2022-08-05T15:26:50.624Z,2.70
2022-08-05T15:30:19.426Z,2.80
2022-08-05T15:34:05.114Z,3.10
2022-08-05T15:38:33.779Z,2.20
2022-08-05T15:41:24.359Z,2.60
2022-08-05T15:44:52.316Z,3.10
2022-08-05T15:48:21.425Z,2.80
2022-08-05T15:52:13.305Z,3.00
2022-08-05T15:56:02.134Z,2.80
2022-08-05T15:59:31.402Z,3.10
2022-08-05T16:02:59.902Z,2.70
2022-08-05T16:06:27.809Z,2.90
2022-08-05T16:09:55.872Z,2.90
2022-08-05T16:13:34.338Z,2.70
2022-08-05T16:17:04.170Z,3.00
2022-08-05T16:20:32.425Z,2.90
2022-08-05T16:26:30.570Z,2.70
2022-08-05T16:29:58.694Z,3.00
2022-08-05T16:33:29.496Z,3.50
2022-08-05T16:38:02.976Z,3.00
2022-08-05T16:41:01.023Z,2.90
2022-08-05T16:44:30.082Z,3.30
2022-08-05T16:48:02.583Z,3.10
2022-08-05T16:51:42.348Z,3.40
2022-08-05T16:55:18.042Z,3.20
2022-08-05T16:58:48.505Z,3.30
2022-08-05T17:02:20.921Z,2.90
2022-08-05T17:05:59.517Z,2.80
2022-08-05T17:09:29.568Z,3.00
2022-08-05T17:13:03.592Z,2.90
2022-08-05T17:16:37.203Z,3.30
2022-08-05T17:20:07.401Z,2.90
2022-08-05T17:24:05.862Z,3.10
2022-08-05T17:27:26.117Z,3.30
2022-08-05T17:30:57.385Z,3.40
2022-08-05T17:34:29.581Z,3.30
2022-08-05T17:38:04.850Z,3.20
2022-08-05T17:42:20.337Z,3.30
2022-08-05T17:45:38.092Z,3.70
2022-08-05T17:49:08.941Z,3.20
2022-08-05T17:52:53.037Z,3.60
2022-08-05T17:56:28.345Z,3.20
2022-08-05T18:00:03.353Z,3.30
2022-08-05T18:04:04.028Z,4.70
2022-08-05T18:07:25.280Z,6.30
2022-08-05T18:11:03.146Z,7.20
2022-08-05T18:14:31.240Z,9.00
2022-08-05T18:18:07.772Z,7.30
2022-08-05T18:22:08.307Z,7.10
2022-08-05T18:25:35.230Z,5.30
2022-08-05T18:29:10.361Z,5.80
2022-08-05T18:32:38.993Z,6.00
2022-08-05T18:36:11.951Z,5.50
2022-08-05T18:40:34.157Z,5.30
2022-08-05T18:43:31.622Z,5.60
2022-08-05T18:47:16.889Z,5.40
2022-08-05T18:52:02.884Z,5.00
2022-08-05T18:54:50.466Z,6.20
2022-08-05T18:58:27.233Z,5.70
2022-08-05T19:01:58.776Z,5.40
2022-08-05T19:06:13.095Z,5.50
2022-08-05T19:09:18.220Z,6.00
2022-08-05T19:12:48.987Z,6.10
2022-08-05T19:16:24.568Z,6.40
2022-08-05T19:19:58.864Z,5.90
2022-08-05T19:24:05.455Z,6.60
2022-08-05T19:27:19.609Z,6.50
2022-08-05T19:30:48.970Z,6.20
2022-08-05T19:34:19.693Z,7.00
2022-08-05T19:38:06.742Z,5.90
2022-08-05T19:42:06.845Z,6.10
2022-08-05T19:45:25.513Z,5.80
2022-08-05T19:48:56.223Z,6.20
2022-08-05T19:52:30.621Z,6.30
2022-08-05T19:56:14.385Z,6.80
2022-08-05T19:59:59.409Z,7.40
2022-08-05T20:03:42.285Z,8.50
2022-08-05T20:07:13.388Z,7.50
2022-08-05T20:10:44.652Z,8.10
2022-08-05T20:14:26.612Z,9.30
2022-08-05T20:17:55.445Z,8.20
2022-08-05T20:21:25.729Z,8.90
2022-08-05T20:24:57.848Z,9.00
2022-08-05T20:28:30.086Z,8.20
2022-08-05T20:31:59.880Z,8.00
2022-08-05T20:35:27.853Z,8.30
2022-08-05T20:38:59.342Z,7.00
2022-08-05T20:42:28.245Z,7.30
2022-08-05T20:45:57.594Z,7.00
2022-08-05T20:49:28.817Z,6.90
2022-08-05T20:53:01.528Z,7.20
2022-08-05T20:56:41.924Z,7.30
2022-08-05T21:00:40.325Z,7.30
2022-08-05T21:04:09.252Z,7.20
2022-08-05T21:07:45.655Z,7.00
2022-08-05T21:12:06.543Z,7.50
2022-08-05T21:15:08.577Z,7.30
2022-08-05T21:18:45.014Z,7.10
2022-08-05T21:22:21.840Z,7.80
2022-08-05T21:25:55.433Z,8.20
2022-08-05T21:29:23.489Z,8.20
2022-08-05T21:33:05.399Z,8.00
2022-08-05T21:36:50.082Z,8.10
2022-08-05T21:40:24.032Z,8.10
2022-08-05T21:44:01.727Z,7.40
2022-08-05T21:47:55.957Z,7.50
2022-08-05T21:52:15.734Z,7.80
2022-08-05T21:55:14.890Z,7.50
2022-08-05T21:58:48.393Z,7.70
2022-08-05T22:02:26.220Z,7.00
2022-08-05T22:05:55.863Z,6.90
2022-08-05T22:09:25.159Z,6.40
2022-08-05T22:14:05.777Z,5.70
2022-08-05T22:17:10.552Z,6.00
2022-08-05T22:20:39.816Z,5.80
2022-08-05T22:24:40.053Z,5.30
2022-08-05T22:28:12.086Z,5.10
2022-08-05T22:31:44.768Z,5.00
2022-08-05T22:35:13.840Z,5.30
2022-08-05T22:38:41.199Z,5.40
2022-08-05T22:42:15.509Z,4.80
2022-08-05T22:45:53.048Z,5.10
2022-08-05T22:50:19.302Z,5.20
2022-08-05T22:53:15.949Z,5.40
2022-08-05T22:56:44.595Z,4.60
2022-08-05T23:00:20.536Z,5.30
2022-08-05T23:03:58.750Z,5.80
2022-08-05T23:07:27.708Z,5.50
2022-08-05T23:10:57.901Z,4.90
2022-08-05T23:14:32.199Z,4.90
2022-08-05T23:18:03.505Z,5.60
2022-08-05T23:21:42.784Z,5.30
2022-08-05T23:25:52.859Z,5.50
2022-08-05T23:29:07.898Z,5.50
2022-08-05T23:32:55.205Z,5.20
2022-08-05T23:36:40.235Z,5.10
2022-08-05T23:40:15.144Z,5.90
2022-08-05T23:44:04.680Z,5.70
2022-08-05T23:47:47.780Z,5.70
2022-08-05T23:51:17.520Z,5.00
2022-08-05T23:54:46.360Z,5.60
2022-08-05T23:58:31.914Z,6.00
